createdAt,value
2023-04-20T00:04:03.822Z,36.17
2023-04-20T00:09:06.288Z,31.37
2023-04-20T00:14:08.789Z,32.20
2023-04-20T00:19:12.222Z,30.20
2023-04-20T00:24:14.663Z,38.17
2023-04-20T00:29:17.271Z,33.47
2023-04-20T00:34:20.440Z,37.50
2023-04-20T00:39:22.883Z,36.93
2023-04-20T00:44:28.198Z,32.33
2023-04-20T00:49:31.842Z,31.13
2023-04-20T00:54:35.529Z,30.40
2023-04-20T00:59:37.882Z,32.27
2023-04-20T01:04:41.281Z,31.73
2023-04-20T01:09:43.809Z,31.37
2023-04-20T01:14:46.187Z,31.70
2023-04-20T01:19:49.662Z,41.43
2023-04-20T01:24:52.462Z,35.40
2023-04-20T01:29:55.476Z,32.83
2023-04-20T01:34:57.908Z,32.33
2023-04-20T01:40:00.531Z,30.20
2023-04-20T01:45:04.457Z,31.17
2023-04-20T01:50:07.368Z,30.60
2023-04-20T01:55:11.707Z,29.63
2023-04-20T02:00:14.769Z,29.67
2023-04-20T02:05:17.331Z,29.07
2023-04-20T02:10:19.833Z,28.97
2023-04-20T02:15:22.460Z,30.47
2023-04-20T02:20:25.561Z,30.10
2023-04-20T02:25:28.020Z,30.80
2023-04-20T02:30:46.509Z,30.97
2023-04-20T02:35:49.184Z,32.07
2023-04-20T02:40:51.579Z,31.10
2023-04-20T02:45:54.542Z,31.07
2023-04-20T02:50:58.429Z,29.53
2023-04-20T02:56:03.020Z,30.43
2023-04-20T03:01:17.134Z,30.37
2023-04-20T03:06:22.039Z,29.90
2023-04-20T03:11:31.066Z,32.80
2023-04-20T03:16:33.836Z,33.90
2023-04-20T03:21:36.721Z,34.00
2023-04-20T03:26:39.572Z,32.67
2023-04-20T03:31:50.085Z,32.77
2023-04-20T03:36:53.400Z,34.50
2023-04-20T03:41:56.171Z,34.60
2023-04-20T03:46:58.545Z,32.57
2023-04-20T03:52:01.005Z,38.10
2023-04-20T03:57:03.814Z,34.33
2023-04-20T04:02:06.324Z,39.33
2023-04-20T04:07:09.047Z,41.63
2023-04-20T04:12:14.152Z,37.20
2023-04-20T04:17:16.900Z,38.33
2023-04-20T04:22:19.536Z,42.97
2023-04-20T04:27:41.887Z,45.27
2023-04-20T04:32:44.848Z,42.13
2023-04-20T04:37:48.112Z,45.63
2023-04-20T04:42:52.893Z,43.67
2023-04-20T04:47:57.223Z,42.30
2023-04-20T04:52:59.827Z,44.27
2023-04-20T04:58:02.712Z,45.83
2023-04-20T05:03:05.303Z,46.23
2023-04-20T05:08:07.829Z,46.30
2023-04-20T05:13:10.346Z,46.13
2023-04-20T05:18:12.764Z,46.30
2023-04-20T05:23:16.185Z,45.17
2023-04-20T05:28:18.959Z,43.70
2023-04-20T05:33:22.078Z,41.57
2023-04-20T05:38:25.659Z,42.17
2023-04-20T05:43:28.068Z,40.83
2023-04-20T05:48:31.337Z,41.40
2023-04-20T05:53:33.870Z,38.20
2023-04-20T05:58:37.683Z,35.27
2023-04-20T06:03:40.381Z,37.73
2023-04-20T06:08:43.084Z,38.00
2023-04-20T06:13:45.635Z,38.43
2023-04-20T06:18:48.100Z,35.00
2023-04-20T06:23:54.554Z,36.33
2023-04-20T06:28:57.124Z,34.77
2023-04-20T06:34:00.604Z,41.20
